createdAt,value
2023-03-29T00:00:08.295Z,14.93
2023-03-29T00:02:39.234Z,13.50
2023-03-29T00:05:07.509Z,11.88
2023-03-29T00:07:34.746Z,18.02
2023-03-29T00:10:04.679Z,13.35
2023-03-29T00:12:32.477Z,11.65
2023-03-29T00:15:00.511Z,12.77
2023-03-29T00:17:28.285Z,16.23
2023-03-29T00:19:55.729Z,19.92
2023-03-29T00:22:23.370Z,16.50
2023-03-29T00:24:54.232Z,14.50
2023-03-29T00:27:22.251Z,17.15
2023-03-29T00:29:49.428Z,13.10
2023-03-29T00:32:16.650Z,17.27
2023-03-29T00:34:45.957Z,12.43
2023-03-29T00:37:14.868Z,12.80
2023-03-29T00:39:42.280Z,13.50
2023-03-29T00:42:16.247Z,12.60
2023-03-29T00:44:52.812Z,14.98
2023-03-29T00:47:26.087Z,14.32
2023-03-29T00:49:54.587Z,10.38
2023-03-29T00:52:22.809Z,12.10
2023-03-29T00:54:54.941Z,18.00
2023-03-29T00:57:25.829Z,13.13
2023-03-29T01:02:26.195Z,15.00
2023-03-29T01:05:05.662Z,22.30
2023-03-29T01:07:48.243Z,15.65
2023-03-29T01:10:25.865Z,16.95
2023-03-29T01:13:01.612Z,14.18
2023-03-29T01:15:29.480Z,14.60
2023-03-29T01:17:58.425Z,15.73
2023-03-29T01:20:34.943Z,12.18
2023-03-29T01:23:27.096Z,10.70
2023-03-29T01:26:28.238Z,13.02
2023-03-29T01:29:04.848Z,8.30
2023-03-29T01:31:37.183Z,11.50
2023-03-29T01:34:14.981Z,11.73
2023-03-29T01:36:54.819Z,10.05
2023-03-29T01:39:22.348Z,9.38
2023-03-29T01:42:25.171Z,12.23
2023-03-29T01:47:30.052Z,13.48
2023-03-29T01:50:31.749Z,10.10
2023-03-29T01:53:34.308Z,8.23
2023-03-29T01:56:12.201Z,8.63
2023-03-29T01:58:44.817Z,5.55
2023-03-29T02:01:17.812Z,6.78
2023-03-29T02:03:49.872Z,8.95
2023-03-29T02:06:23.858Z,6.82
2023-03-29T02:08:53.089Z,6.15
2023-03-29T02:11:23.369Z,5.47
2023-03-29T02:13:50.785Z,8.02
2023-03-29T02:16:18.665Z,7.28
2023-03-29T02:18:48.734Z,5.78
2023-03-29T02:21:32.695Z,8.00
2023-03-29T02:24:03.470Z,8.82
2023-03-29T02:26:30.815Z,7.88
2023-03-29T02:28:58.022Z,7.97
2023-03-29T02:31:33.364Z,11.73
2023-03-29T02:34:19.258Z,9.88
2023-03-29T02:36:51.997Z,9.85
2023-03-29T02:39:20.766Z,8.00
2023-03-29T02:41:50.492Z,9.13
2023-03-29T02:44:24.620Z,10.32
2023-03-29T02:46:55.696Z,6.28
2023-03-29T02:49:23.543Z,7.80
2023-03-29T02:51:54.289Z,8.48
2023-03-29T02:54:25.959Z,9.18
2023-03-29T02:57:02.584Z,9.45
2023-03-29T02:59:30.528Z,10.48
2023-03-29T03:01:58.470Z,9.85
2023-03-29T03:04:27.305Z,11.88
2023-03-29T03:06:54.499Z,9.88
2023-03-29T03:09:21.836Z,7.00
2023-03-29T03:11:49.063Z,11.52
2023-03-29T03:14:16.799Z,12.02
2023-03-29T03:16:44.171Z,8.07
2023-03-29T03:19:11.858Z,8.82
2023-03-29T03:21:39.250Z,11.93
2023-03-29T03:24:07.664Z,9.50
2023-03-29T03:26:35.998Z,7.47
2023-03-29T03:29:03.745Z,7.88
2023-03-29T03:31:54.254Z,8.45
2023-03-29T03:34:40.112Z,8.52
2023-03-29T03:37:07.422Z,11.98
2023-03-29T03:39:35.877Z,7.07
2023-03-29T03:42:07.855Z,8.02
2023-03-29T03:44:39.536Z,6.10
2023-03-29T03:47:38.713Z,5.68
2023-03-29T03:50:23.516Z,9.35
2023-03-29T03:52:50.763Z,5.80
2023-03-29T03:55:18.149Z,7.43
2023-03-29T03:57:52.674Z,7.10
2023-03-29T04:00:21.404Z,5.82
2023-03-29T04:03:06.264Z,11.20
2023-03-29T04:05:40.529Z,5.65
2023-03-29T04:11:11.091Z,4.93
2023-03-29T04:13:41.829Z,12.48
2023-03-29T04:16:25.141Z,8.27
2023-03-29T04:18:53.080Z,8.00
2023-03-29T04:21:22.955Z,6.68
2023-03-29T04:23:50.104Z,8.63
2023-03-29T04:26:18.118Z,6.80
2023-03-29T04:28:51.112Z,8.88
2023-03-29T04:31:23.537Z,8.80
2023-03-29T04:34:19.781Z,6.53
2023-03-29T04:36:53.111Z,8.52
2023-03-29T04:39:31.909Z,8.43
2023-03-29T04:42:00.117Z,8.07
2023-03-29T04:44:29.548Z,8.55
2023-03-29T04:47:02.092Z,6.88
2023-03-29T04:49:49.329Z,7.35
2023-03-29T04:52:35.676Z,9.02
2023-03-29T04:55:07.041Z,11.85
2023-03-29T04:57:55.701Z,8.48
2023-03-29T05:00:35.091Z,15.02
2023-03-29T05:03:22.653Z,9.65
2023-03-29T05:06:12.995Z,10.60
2023-03-29T05:08:40.782Z,7.93
2023-03-29T05:11:15.294Z,7.93
2023-03-29T05:13:44.069Z,7.07
2023-03-29T05:16:11.289Z,9.48
2023-03-29T05:18:39.111Z,10.40
2023-03-29T05:21:06.491Z,9.93
2023-03-29T05:23:36.266Z,11.90
2023-03-29T05:26:22.862Z,8.82
2023-03-29T05:28:53.144Z,8.90
2023-03-29T05:31:20.497Z,12.80
2023-03-29T05:33:52.783Z,7.32
2023-03-29T05:36:20.303Z,9.20
2023-03-29T05:38:50.040Z,11.77
2023-03-29T05:41:19.012Z,9.93
2023-03-29T05:43:58.589Z,9.43
2023-03-29T05:46:27.040Z,9.18
2023-03-29T05:48:57.326Z,10.43
2023-03-29T05:51:37.458Z,10.38
2023-03-29T05:54:05.676Z,8.10
2023-03-29T05:56:32.846Z,7.75
2023-03-29T05:59:02.122Z,9.05
2023-03-29T06:01:29.817Z,8.02
2023-03-29T06:04:06.163Z,7.05
2023-03-29T06:06:40.780Z,7.38
2023-03-29T06:09:08.497Z,6.45
2023-03-29T06:12:05.315Z,7.53
2023-03-29T06:14:43.656Z,7.38
2023-03-29T06:17:26.472Z,6.70
2023-03-29T06:19:53.850Z,11.35
2023-03-29T06:22:24.894Z,8.27
2023-03-29T06:24:52.352Z,9.32
2023-03-29T06:27:26.445Z,6.95
2023-03-29T06:29:54.307Z,4.68
2023-03-29T06:32:21.575Z,6.25
2023-03-29T06:34:57.698Z,5.05
2023-03-29T06:37:34.537Z,9.35
2023-03-29T06:40:23.015Z,9.05
2023-03-29T06:42:57.794Z,6.90
2023-03-29T06:45:48.192Z,10.70
2023-03-29T06:48:41.724Z,7.82
2023-03-29T06:51:09.531Z,8.70
2023-03-29T06:53:36.816Z,6.47
2023-03-29T06:56:09.380Z,4.80
2023-03-29T06:58:42.688Z,6.25
2023-03-29T07:01:34.771Z,7.15
2023-03-29T07:04:12.895Z,7.30
2023-03-29T07:07:01.808Z,5.50
2023-03-29T07:12:17.367Z,8.05
2023-03-29T07:14:46.604Z,7.30
2023-03-29T07:17:15.027Z,10.07
2023-03-29T07:19:43.030Z,5.68
2023-03-29T07:22:27.738Z,7.28
2023-03-29T07:25:00.666Z,9.80
2023-03-29T07:27:28.338Z,8.07
2023-03-29T07:29:56.985Z,11.93
2023-03-29T07:32:24.623Z,6.93
2023-03-29T07:35:00.178Z,7.25
2023-03-29T07:37:35.235Z,9.57
2023-03-29T07:40:09.024Z,4.95
2023-03-29T07:43:10.976Z,5.80
2023-03-29T07:45:40.740Z,5.63
2023-03-29T07:48:12.003Z,6.70
2023-03-29T07:50:49.457Z,4.75
2023-03-29T07:53:19.729Z,5.80
2023-03-29T07:55:49.207Z,5.00
2023-03-29T07:58:37.704Z,5.82
2023-03-29T08:01:06.256Z,4.20
2023-03-29T08:04:03.094Z,5.63
2023-03-29T08:06:50.687Z,7.00
2023-03-29T08:09:19.261Z,5.00
2023-03-29T08:11:47.363Z,6.97
2023-03-29T08:14:22.022Z,6.03
2023-03-29T08:17:04.536Z,5.80
2023-03-29T08:19:36.234Z,4.55
2023-03-29T08:22:08.223Z,6.25
2023-03-29T08:25:02.625Z,6.20
2023-03-29T08:27:34.457Z,4.32
2023-03-29T08:30:02.283Z,4.55
2023-03-29T08:32:29.580Z,7.97
2023-03-29T08:35:29.237Z,3.15
2023-03-29T08:38:10.589Z,3.20
2023-03-29T08:40:38.099Z,3.25
2023-03-29T08:43:17.862Z,3.88
2023-03-29T08:46:17.612Z,2.47
2023-03-29T08:48:53.881Z,2.63
2023-03-29T08:51:35.414Z,4.60
2023-03-29T08:54:07.485Z,3.60
2023-03-29T08:56:57.521Z,4.00
2023-03-29T08:59:33.488Z,2.28
2023-03-29T09:02:10.604Z,2.15
2023-03-29T09:04:40.813Z,4.07
2023-03-29T09:07:28.937Z,2.17
2023-03-29T09:09:57.356Z,1.50
2023-03-29T09:13:04.779Z,2.13
2023-03-29T09:16:19.728Z,1.98
2023-03-29T09:19:28.789Z,3.58
2023-03-29T09:22:12.125Z,3.20
2023-03-29T09:24:39.474Z,2.28
2023-03-29T09:27:28.534Z,1.55
2023-03-29T09:30:14.649Z,4.50
2023-03-29T09:32:55.290Z,2.45
2023-03-29T09:35:41.278Z,0.60
2023-03-29T09:38:13.442Z,1.00
2023-03-29T09:40:55.753Z,1.08
2023-03-29T09:43:32.039Z,1.13
2023-03-29T09:46:06.417Z,3.22
2023-03-29T09:48:40.976Z,0.82
2023-03-29T09:51:10.772Z,1.30
2023-03-29T09:53:39.625Z,1.25
2023-03-29T09:56:20.275Z,0.68
2023-03-29T09:58:53.654Z,0.57
2023-03-29T10:01:21.530Z,1.33
2023-03-29T10:03:52.394Z,2.00
2023-03-29T10:06:23.637Z,2.90
2023-03-29T10:08:59.343Z,1.00
2023-03-29T10:11:37.014Z,0.88
2023-03-29T10:14:16.893Z,1.45
2023-03-29T10:16:46.353Z,2.33
2023-03-29T10:19:34.774Z,1.67
2023-03-29T10:22:26.456Z,1.77
2023-03-29T10:24:55.413Z,2.97
2023-03-29T10:27:26.205Z,2.45
2023-03-29T10:29:55.162Z,1.70
2023-03-29T10:32:22.935Z,3.50
2023-03-29T10:34:52.233Z,2.13
2023-03-29T10:37:21.333Z,3.60
2023-03-29T10:39:49.686Z,5.32
2023-03-29T10:42:20.363Z,2.38
2023-03-29T10:44:57.484Z,2.05
2023-03-29T10:47:26.150Z,3.70
2023-03-29T10:49:59.089Z,3.83
2023-03-29T10:52:27.054Z,4.38
2023-03-29T10:54:56.959Z,2.88
2023-03-29T10:57:40.861Z,4.30
2023-03-29T11:00:21.294Z,3.67
2023-03-29T11:03:08.789Z,4.72
2023-03-29T11:06:11.233Z,3.03
2023-03-29T11:08:59.891Z,3.80
2023-03-29T11:11:33.106Z,6.60
2023-03-29T11:14:30.222Z,5.68
2023-03-29T11:17:26.706Z,6.65
2023-03-29T11:20:18.682Z,4.20
2023-03-29T11:23:06.935Z,5.88
2023-03-29T11:25:53.327Z,11.35
2023-03-29T11:28:29.865Z,8.65
2023-03-29T11:31:15.788Z,7.85
2023-03-29T11:34:22.631Z,12.00
2023-03-29T11:36:53.892Z,6.97
2023-03-29T11:39:30.632Z,12.25
2023-03-29T11:42:04.622Z,15.63
2023-03-29T11:44:33.114Z,11.45
2023-03-29T11:47:09.996Z,10.15
2023-03-29T11:49:59.774Z,7.70
2023-03-29T11:52:35.399Z,10.95
2023-03-29T11:55:10.650Z,11.45
2023-03-29T11:57:39.709Z,9.60
2023-03-29T12:00:19.767Z,14.73
2023-03-29T12:02:58.997Z,7.88
2023-03-29T12:05:38.488Z,15.13
2023-03-29T12:08:08.704Z,10.82
2023-03-29T12:10:39.281Z,11.68
2023-03-29T12:13:19.127Z,12.27
2023-03-29T12:15:52.667Z,10.60
2023-03-29T12:18:28.298Z,10.20
2023-03-29T12:21:01.933Z,13.10
2023-03-29T12:23:33.107Z,12.18
2023-03-29T12:26:00.622Z,12.13
2023-03-29T12:28:46.859Z,12.40
2023-03-29T12:31:46.339Z,8.10
2023-03-29T12:34:57.200Z,7.85
2023-03-29T12:37:47.100Z,8.85
2023-03-29T12:40:45.826Z,13.00
2023-03-29T12:43:34.181Z,11.35
2023-03-29T12:46:33.175Z,9.38
2023-03-29T12:49:39.067Z,6.78
2023-03-29T12:52:38.975Z,9.73
2023-03-29T12:55:31.312Z,14.40
2023-03-29T12:58:06.133Z,7.10
2023-03-29T13:00:45.034Z,8.90
2023-03-29T13:03:42.836Z,8.80
2023-03-29T13:06:11.788Z,11.85
2023-03-29T13:08:42.379Z,11.00
2023-03-29T13:11:35.623Z,11.77
2023-03-29T13:14:12.890Z,10.40
2023-03-29T13:16:41.380Z,12.35
2023-03-29T13:19:27.101Z,12.73
2023-03-29T13:22:06.757Z,8.10
2023-03-29T13:24:36.780Z,11.55
2023-03-29T13:27:31.933Z,13.70
2023-03-29T13:30:47.169Z,7.47
2023-03-29T13:33:34.120Z,10.73
2023-03-29T13:36:27.281Z,14.85
2023-03-29T13:38:55.562Z,15.90
2023-03-29T13:41:41.945Z,9.50
2023-03-29T13:44:47.780Z,11.55
2023-03-29T13:47:33.295Z,9.80
2023-03-29T13:50:16.624Z,5.63
2023-03-29T13:53:02.285Z,8.15
2023-03-29T13:55:34.406Z,9.90
2023-03-29T13:58:19.371Z,10.48
2023-03-29T14:01:01.604Z,12.02
2023-03-29T14:03:33.608Z,13.05
2023-03-29T14:06:03.270Z,9.25
2023-03-29T14:08:35.799Z,9.63
2023-03-29T14:11:07.098Z,13.57
2023-03-29T14:13:34.991Z,7.75
2023-03-29T14:16:07.004Z,9.60
2023-03-29T14:18:38.070Z,10.55
2023-03-29T14:21:05.738Z,11.20
2023-03-29T14:23:36.846Z,8.50
2023-03-29T14:26:19.488Z,12.55
2023-03-29T14:28:50.819Z,10.70
2023-03-29T14:31:25.871Z,14.73
2023-03-29T14:33:55.214Z,9.88
2023-03-29T14:36:25.325Z,9.82
2023-03-29T14:38:58.041Z,7.82
2023-03-29T14:41:34.597Z,11.00
2023-03-29T14:44:03.367Z,7.93
2023-03-29T14:46:31.757Z,11.88
2023-03-29T14:48:59.951Z,10.75
2023-03-29T14:51:30.353Z,9.57
2023-03-29T14:54:00.127Z,5.03
2023-03-29T14:56:28.162Z,15.18
2023-03-29T14:58:56.788Z,7.88
2023-03-29T15:01:26.391Z,10.25
2023-03-29T15:03:56.399Z,7.43
2023-03-29T15:06:25.733Z,8.75
2023-03-29T15:09:04.518Z,16.20
2023-03-29T15:11:34.417Z,8.65
2023-03-29T15:14:14.033Z,9.95
2023-03-29T15:16:43.818Z,6.95
2023-03-29T15:19:22.722Z,10.15
2023-03-29T15:21:51.357Z,8.20
2023-03-29T15:24:30.385Z,7.07
2023-03-29T15:27:18.955Z,13.10
2023-03-29T15:29:47.527Z,11.13
2023-03-29T15:32:22.927Z,9.25
2023-03-29T15:35:05.119Z,12.10
2023-03-29T15:37:32.562Z,8.43
2023-03-29T15:40:09.675Z,9.80
2023-03-29T15:42:36.920Z,16.58
2023-03-29T15:45:07.651Z,9.57
2023-03-29T15:47:35.685Z,8.93
2023-03-29T15:50:03.080Z,7.88
2023-03-29T15:52:30.444Z,10.77
2023-03-29T15:54:57.707Z,5.57
2023-03-29T15:57:25.093Z,7.53
2023-03-29T15:59:52.385Z,8.75
2023-03-29T16:02:24.760Z,7.95
2023-03-29T16:04:52.004Z,9.07
2023-03-29T16:07:19.876Z,14.98
2023-03-29T16:09:48.001Z,5.43
2023-03-29T16:12:17.780Z,12.00
2023-03-29T16:14:45.182Z,11.70
2023-03-29T16:17:12.462Z,23.13
2023-03-29T16:19:40.091Z,11.18
2023-03-29T16:22:07.664Z,14.32
2023-03-29T16:24:35.881Z,12.10
2023-03-29T16:27:03.899Z,7.97
2023-03-29T16:29:31.781Z,8.70
2023-03-29T16:31:59.467Z,17.52
2023-03-29T16:34:26.886Z,8.75
2023-03-29T16:36:54.304Z,10.95
2023-03-29T16:39:21.732Z,9.55
2023-03-29T16:41:50.329Z,7.78
2023-03-29T16:44:22.837Z,16.55
2023-03-29T16:46:54.356Z,11.30
2023-03-29T16:49:22.608Z,8.35
2023-03-29T16:51:50.175Z,13.27
2023-03-29T16:54:19.056Z,15.40
2023-03-29T16:56:47.071Z,9.15
2023-03-29T16:59:15.415Z,6.35
2023-03-29T17:01:43.083Z,13.60
2023-03-29T17:04:10.760Z,9.07
2023-03-29T17:06:38.093Z,5.78
2023-03-29T17:09:06.215Z,10.50
2023-03-29T17:11:34.178Z,9.05
2023-03-29T17:14:01.740Z,6.78
2023-03-29T17:16:29.264Z,9.35
2023-03-29T17:19:00.391Z,7.05
2023-03-29T17:21:28.952Z,12.27
2023-03-29T17:23:56.047Z,9.68
2023-03-29T17:26:23.290Z,7.45
2023-03-29T17:28:50.575Z,11.95
2023-03-29T17:31:19.487Z,9.48
2023-03-29T17:33:47.586Z,11.63
2023-03-29T17:36:15.002Z,5.82
2023-03-29T17:38:43.263Z,7.22
2023-03-29T17:41:11.177Z,9.43
2023-03-29T17:43:38.404Z,14.55
2023-03-29T17:46:06.168Z,6.20
2023-03-29T17:48:33.486Z,8.60
2023-03-29T17:51:00.915Z,10.20
2023-03-29T17:53:28.081Z,7.45
2023-03-29T17:55:55.490Z,7.70
2023-03-29T17:58:22.703Z,8.27
2023-03-29T18:00:49.884Z,10.25
2023-03-29T18:03:18.370Z,7.80
2023-03-29T18:05:45.555Z,10.98
2023-03-29T18:08:13.732Z,5.55
2023-03-29T18:10:41.265Z,7.43
2023-03-29T18:13:11.382Z,7.85
2023-03-29T18:15:38.640Z,12.27
2023-03-29T18:18:05.984Z,7.85
2023-03-29T18:20:33.170Z,6.53
2023-03-29T18:23:00.403Z,9.57
2023-03-29T18:25:27.644Z,9.75
2023-03-29T18:27:54.821Z,10.18
2023-03-29T18:30:25.470Z,7.03
2023-03-29T18:32:53.250Z,8.75
2023-03-29T18:35:20.718Z,12.25
2023-03-29T18:37:48.128Z,13.55
2023-03-29T18:40:19.779Z,17.42
2023-03-29T18:42:47.399Z,9.88
2023-03-29T18:45:14.621Z,8.48
2023-03-29T18:47:42.089Z,11.02
2023-03-29T18:50:09.982Z,10.38
2023-03-29T18:52:37.745Z,11.23
2023-03-29T18:55:06.787Z,5.50
2023-03-29T18:57:36.376Z,7.65
2023-03-29T19:00:10.576Z,7.38
2023-03-29T19:02:39.287Z,5.90
2023-03-29T19:05:08.102Z,5.75
2023-03-29T19:07:36.110Z,9.82
2023-03-29T19:10:05.068Z,9.85
2023-03-29T19:12:35.334Z,10.80
2023-03-29T19:15:03.372Z,11.32
2023-03-29T19:17:30.871Z,6.32
2023-03-29T19:19:58.482Z,8.95
2023-03-29T19:22:26.009Z,5.97
2023-03-29T19:24:53.184Z,5.32
2023-03-29T19:27:21.471Z,9.60
2023-03-29T19:29:49.339Z,11.60
2023-03-29T19:32:16.538Z,8.40
2023-03-29T19:34:43.719Z,6.10
2023-03-29T19:37:11.035Z,9.85
2023-03-29T19:39:40.369Z,7.60
2023-03-29T19:42:07.986Z,11.77
2023-03-29T19:44:38.240Z,6.28
2023-03-29T19:47:06.119Z,11.85
2023-03-29T19:49:36.737Z,12.30
2023-03-29T19:52:04.637Z,14.57
2023-03-29T19:54:32.273Z,5.63
2023-03-29T19:57:00.101Z,5.47
2023-03-29T19:59:27.917Z,6.57
2023-03-29T20:01:57.027Z,8.82
2023-03-29T20:04:24.731Z,11.10
2023-03-29T20:06:52.006Z,7.13
2023-03-29T20:09:19.245Z,5.45
2023-03-29T20:11:49.150Z,5.07
2023-03-29T20:14:16.665Z,7.65
2023-03-29T20:16:46.613Z,7.93
2023-03-29T20:19:14.253Z,12.35
2023-03-29T20:21:41.505Z,9.25
2023-03-29T20:24:09.038Z,9.82
2023-03-29T20:26:36.508Z,10.23
2023-03-29T20:29:03.942Z,6.65
2023-03-29T20:31:31.501Z,12.13
2023-03-29T20:33:58.763Z,4.85
2023-03-29T20:36:26.689Z,12.43
2023-03-29T20:38:56.308Z,9.15
2023-03-29T20:41:23.717Z,6.55
2023-03-29T20:43:58.392Z,6.40
2023-03-29T20:46:33.497Z,5.07
2023-03-29T20:49:05.874Z,3.97
2023-03-29T20:54:04.998Z,4.93
2023-03-29T20:56:34.622Z,3.63
2023-03-29T20:59:02.982Z,4.90
2023-03-29T21:01:30.745Z,6.28
2023-03-29T21:03:58.779Z,6.82
2023-03-29T21:06:26.222Z,5.80
2023-03-29T21:08:53.403Z,7.30
2023-03-29T21:11:21.098Z,7.80
2023-03-29T21:13:48.471Z,8.25
2023-03-29T21:16:15.771Z,10.60
2023-03-29T21:18:43.475Z,9.20
2023-03-29T21:21:12.338Z,10.55
2023-03-29T21:23:39.676Z,9.77
2023-03-29T21:26:07.916Z,13.80
2023-03-29T21:28:35.830Z,11.02
2023-03-29T21:31:06.955Z,8.73
2023-03-29T21:33:35.275Z,6.63
2023-03-29T21:36:02.714Z,10.15
2023-03-29T21:38:29.947Z,8.18
2023-03-29T21:40:58.241Z,8.27
2023-03-29T21:43:25.713Z,13.65
2023-03-29T21:45:52.982Z,7.72
2023-03-29T21:48:20.240Z,9.18
2023-03-29T21:50:51.071Z,9.55
2023-03-29T21:53:18.475Z,7.65
2023-03-29T21:55:48.931Z,5.57
2023-03-29T21:58:16.423Z,5.68
2023-03-29T22:00:44.161Z,12.43
2023-03-29T22:03:11.511Z,10.10
2023-03-29T22:05:38.804Z,13.35
2023-03-29T22:08:06.745Z,8.07
2023-03-29T22:10:36.933Z,13.85
2023-03-29T22:13:04.258Z,9.88
2023-03-29T22:15:35.517Z,10.65
2023-03-29T22:18:03.810Z,14.40
2023-03-29T22:20:35.593Z,12.40
2023-03-29T22:23:03.490Z,18.95
2023-03-29T22:25:31.120Z,13.10
2023-03-29T22:27:58.696Z,7.25
2023-03-29T22:30:25.944Z,9.02
2023-03-29T22:32:53.228Z,14.70
2023-03-29T22:35:20.789Z,15.25
2023-03-29T22:37:47.917Z,16.13
2023-03-29T22:40:15.223Z,16.75
2023-03-29T22:42:42.383Z,11.18
2023-03-29T22:45:10.099Z,13.07
2023-03-29T22:47:37.561Z,14.00
2023-03-29T22:50:06.440Z,12.68
2023-03-29T22:52:33.572Z,12.57
2023-03-29T22:55:00.913Z,12.20
2023-03-29T22:57:28.081Z,9.18
2023-03-29T22:59:55.415Z,9.75
2023-03-29T23:02:22.591Z,10.40
2023-03-29T23:04:49.731Z,9.60
2023-03-29T23:07:16.894Z,10.60
2023-03-29T23:09:44.003Z,8.77
2023-03-29T23:12:11.203Z,12.02
2023-03-29T23:14:42.586Z,10.90
2023-03-29T23:17:10.335Z,10.07
2023-03-29T23:19:38.178Z,5.90
2023-03-29T23:22:05.369Z,9.57
2023-03-29T23:24:32.570Z,12.00
2023-03-29T23:27:01.158Z,10.45
2023-03-29T23:29:28.465Z,11.40
2023-03-29T23:31:56.941Z,7.07
2023-03-29T23:34:24.162Z,13.20
2023-03-29T23:36:51.286Z,15.88
2023-03-29T23:39:18.388Z,12.02
2023-03-29T23:41:45.691Z,13.98
2023-03-29T23:44:12.856Z,11.30
2023-03-29T23:46:41.104Z,14.48
2023-03-29T23:49:10.068Z,10.82
2023-03-29T23:51:39.248Z,11.13
2023-03-29T23:54:06.667Z,10.30
2023-03-29T23:56:33.946Z,10.02
2023-03-29T23:59:01.617Z,15.18
